Terminal Aerodrome Forecast
Issued by NWS Goodland, KS

Home | Current Version | Previous Version | Text Only | Print | Product List | Glossary On
Versions: 1 2 3 4 5 6 7 8 9 10 11 12 13 14 15 16 17 18 19 20 21 22 23
000
FTUS43 KGLD 270212 AAA
TAFGLD
TAF AMD
KGLD 270212Z 2702/2724 15007KT P6SM -TSRA BKN060CB
      TEMPO 2703/2707 25020G35KT 5SM TSRA OVC050CB
     FM270900 17005KT P6SM -SHRA VCTS SCT007 SCT025 BKN100CB
     FM271200 18005KT 3SM BR VCSH BKN007
     FM271700 18010KT P6SM SCT025 BKN050=

USA.gov is the U.S. government's official web portal to all federal, state and local government web resources and services.